createdAt,value
2022-11-24T00:01:20.168Z,31.80
2022-11-24T00:03:54.460Z,42.07
2022-11-24T00:06:22.287Z,35.70
2022-11-24T00:08:50.869Z,34.93
2022-11-24T00:11:21.851Z,32.23
2022-11-24T00:13:50.475Z,25.67
2022-11-24T00:16:20.193Z,25.30
2022-11-24T00:18:50.221Z,24.87
2022-11-24T00:21:19.943Z,27.43
2022-11-24T00:23:52.113Z,27.07
2022-11-24T00:26:23.402Z,32.50
2022-11-24T00:28:53.049Z,33.13
2022-11-24T00:31:23.122Z,36.63
2022-11-24T00:33:53.053Z,31.37
2022-11-24T00:36:23.049Z,35.13
2022-11-24T00:38:54.752Z,31.37
2022-11-24T00:41:24.866Z,28.47
2022-11-24T00:43:53.152Z,24.23
2022-11-24T00:46:22.037Z,26.27
2022-11-24T00:48:50.020Z,28.60
2022-11-24T00:51:19.339Z,28.37
2022-11-24T00:53:47.724Z,30.80
2022-11-24T00:56:16.156Z,34.03
2022-11-24T00:58:48.479Z,34.13
2022-11-24T01:01:18.581Z,34.37
2022-11-24T01:03:47.543Z,34.00
2022-11-24T01:06:18.972Z,38.87
2022-11-24T01:08:47.599Z,30.90
2022-11-24T01:11:17.198Z,32.30
2022-11-24T01:13:47.364Z,31.57
2022-11-24T01:16:19.044Z,29.17
2022-11-24T01:18:47.625Z,32.50
2022-11-24T01:21:16.496Z,37.50
2022-11-24T01:23:44.317Z,34.00
2022-11-24T01:26:14.338Z,36.80
2022-11-24T01:28:47.489Z,34.87
2022-11-24T01:31:17.390Z,37.80
2022-11-24T01:33:45.291Z,35.27
2022-11-24T01:36:13.738Z,36.73
2022-11-24T01:38:41.857Z,35.53
2022-11-24T01:41:13.163Z,37.43
2022-11-24T01:43:41.541Z,44.03
2022-11-24T01:46:19.220Z,41.40
2022-11-24T01:48:52.699Z,36.73
2022-11-24T01:51:24.783Z,46.70
2022-11-24T01:53:57.918Z,40.90
2022-11-24T01:56:27.268Z,36.73
2022-11-24T01:58:59.522Z,43.13
2022-11-24T02:01:31.086Z,41.13
2022-11-24T02:04:00.854Z,37.77
2022-11-24T02:06:32.394Z,39.43
2022-11-24T02:09:05.400Z,38.13
2022-11-24T02:11:36.720Z,40.40
2022-11-24T02:14:06.056Z,38.83
2022-11-24T02:16:36.351Z,37.60
2022-11-24T02:19:08.008Z,37.43
2022-11-24T02:21:35.842Z,38.57
2022-11-24T02:24:11.118Z,44.53
2022-11-24T02:26:43.971Z,41.60
2022-11-24T02:29:12.911Z,40.23
2022-11-24T02:31:45.919Z,42.67
2022-11-24T02:34:13.730Z,39.63
2022-11-24T02:36:41.517Z,43.33
2022-11-24T02:39:11.878Z,34.60
2022-11-24T02:41:43.226Z,39.80
2022-11-24T02:44:12.496Z,36.57
2022-11-24T02:46:40.419Z,40.80
2022-11-24T02:49:08.305Z,36.07
2022-11-24T02:51:36.112Z,41.73
2022-11-24T02:54:03.945Z,39.30
2022-11-24T02:56:32.144Z,32.73
2022-11-24T02:59:01.295Z,35.57
2022-11-24T03:01:29.143Z,40.83
2022-11-24T03:03:56.989Z,42.07
2022-11-24T03:06:24.763Z,35.63
2022-11-24T03:08:52.541Z,35.20
2022-11-24T03:11:20.334Z,38.43
2022-11-24T03:13:48.134Z,30.27
2022-11-24T03:16:17.293Z,30.03
2022-11-24T03:18:45.166Z,29.30
2022-11-24T03:21:12.984Z,34.00
2022-11-24T03:23:41.171Z,34.50
2022-11-24T03:26:10.097Z,33.07
2022-11-24T03:28:37.993Z,31.17
2022-11-24T03:31:06.519Z,36.30
2022-11-24T03:33:36.374Z,30.27
2022-11-24T03:36:05.327Z,31.63
2022-11-24T03:38:33.291Z,31.93
2022-11-24T03:41:01.340Z,30.00
2022-11-24T03:43:29.164Z,38.47
2022-11-24T03:45:57.096Z,30.60
2022-11-24T03:48:25.028Z,32.80
2022-11-24T03:50:59.118Z,28.07
2022-11-24T03:53:28.628Z,33.40
2022-11-24T03:55:57.071Z,32.83
2022-11-24T03:58:25.174Z,29.50
2022-11-24T04:00:54.656Z,30.80
2022-11-24T04:03:23.329Z,31.10
2022-11-24T04:05:51.531Z,30.93
2022-11-24T04:08:21.224Z,31.03
2022-11-24T04:10:51.749Z,33.50
2022-11-24T04:13:20.139Z,30.53
2022-11-24T04:15:48.455Z,32.13
2022-11-24T04:18:16.401Z,30.07
2022-11-24T04:20:44.819Z,29.03
2022-11-24T04:23:12.950Z,33.70
2022-11-24T04:25:43.623Z,31.80
2022-11-24T04:28:12.909Z,33.77
2022-11-24T04:30:44.517Z,30.93
2022-11-24T04:33:13.336Z,39.13
2022-11-24T04:35:41.267Z,34.70
2022-11-24T04:38:09.079Z,34.07
2022-11-24T04:40:36.858Z,35.27
2022-11-24T04:43:06.112Z,32.30
2022-11-24T04:45:33.952Z,26.20
2022-11-24T04:48:01.753Z,31.37
2022-11-24T04:50:29.566Z,30.10
2022-11-24T04:52:57.455Z,31.37
2022-11-24T04:55:25.234Z,28.10
2022-11-24T04:57:53.023Z,28.23
2022-11-24T05:00:22.474Z,30.90
2022-11-24T05:02:50.357Z,29.90
2022-11-24T05:05:18.331Z,31.03
2022-11-24T05:07:46.184Z,30.60
2022-11-24T05:10:31.730Z,31.60
2022-11-24T05:13:00.269Z,31.33
2022-11-24T05:15:30.056Z,31.30
2022-11-24T05:17:58.326Z,39.13
2022-11-24T05:20:26.274Z,30.73
2022-11-24T05:22:54.060Z,32.70
2022-11-24T05:25:22.083Z,35.17
2022-11-24T05:27:52.155Z,38.40
2022-11-24T05:30:20.400Z,37.83
2022-11-24T05:32:49.667Z,38.90
2022-11-24T05:35:18.897Z,38.00
2022-11-24T05:37:47.506Z,38.63
2022-11-24T05:40:15.552Z,38.30
2022-11-24T05:42:47.580Z,41.77
2022-11-24T05:45:18.667Z,43.53
2022-11-24T05:47:46.945Z,42.07
2022-11-24T05:50:18.002Z,39.10
2022-11-24T05:52:46.114Z,39.10
2022-11-24T05:55:14.960Z,40.40
2022-11-24T05:57:43.098Z,40.60
2022-11-24T06:00:12.930Z,39.80
2022-11-24T06:02:41.407Z,43.23
2022-11-24T06:05:09.636Z,42.03
2022-11-24T06:07:39.422Z,38.60
2022-11-24T06:10:07.715Z,39.53
2022-11-24T06:12:35.592Z,43.43
2022-11-24T06:15:03.492Z,40.60
2022-11-24T06:17:31.340Z,38.13
2022-11-24T06:19:59.138Z,36.50
2022-11-24T06:22:27.131Z,46.73
2022-11-24T06:24:56.253Z,47.33
2022-11-24T06:27:24.562Z,41.63
2022-11-24T06:29:52.796Z,42.57
2022-11-24T06:32:20.767Z,42.20
2022-11-24T06:34:48.620Z,47.40
2022-11-24T06:37:16.541Z,42.03
2022-11-24T06:39:44.328Z,40.40
2022-11-24T06:42:13.479Z,43.23
2022-11-24T06:44:41.721Z,40.03
2022-11-24T06:47:09.679Z,42.60
2022-11-24T06:49:37.526Z,44.00
2022-11-24T06:52:05.721Z,46.83
2022-11-24T06:54:33.741Z,42.17
2022-11-24T06:57:02.052Z,40.57
2022-11-24T06:59:31.182Z,38.83
2022-11-24T07:01:58.994Z,45.57
2022-11-24T07:04:26.844Z,41.77
2022-11-24T07:06:54.616Z,53.07
2022-11-24T07:09:22.397Z,42.70
2022-11-24T07:11:50.211Z,48.17
2022-11-24T07:14:19.197Z,38.30
2022-11-24T07:16:48.442Z,39.07
2022-11-24T07:19:20.160Z,49.83
2022-11-24T07:21:51.147Z,39.93
2022-11-24T07:24:19.011Z,43.00
2022-11-24T07:26:46.875Z,44.67
2022-11-24T07:29:14.972Z,41.40
2022-11-24T07:31:43.317Z,43.63
2022-11-24T07:34:14.577Z,41.70
2022-11-24T07:36:43.042Z,46.07
2022-11-24T07:39:10.892Z,35.10
2022-11-24T07:41:38.699Z,38.90
2022-11-24T07:44:06.803Z,51.80
2022-11-24T07:46:34.638Z,56.07
2022-11-24T07:49:02.584Z,42.77
2022-11-24T07:51:31.697Z,38.00
2022-11-24T07:53:59.612Z,41.13
2022-11-24T07:56:27.395Z,36.10
2022-11-24T07:58:55.195Z,42.40
2022-11-24T08:01:23.104Z,39.90
2022-11-24T08:03:51.145Z,40.53
2022-11-24T08:06:26.175Z,44.03
2022-11-24T08:08:58.678Z,42.93
2022-11-24T08:11:27.108Z,32.40
2022-11-24T08:13:54.948Z,34.53
2022-11-24T08:16:22.901Z,38.47
2022-11-24T08:18:51.872Z,36.47
2022-11-24T08:21:20.118Z,45.60
2022-11-24T08:23:48.175Z,43.50
2022-11-24T08:26:19.302Z,55.60
2022-11-24T08:28:48.311Z,42.33
2022-11-24T08:31:19.582Z,37.67
2022-11-24T08:33:48.068Z,45.60
2022-11-24T08:36:18.015Z,39.33
2022-11-24T08:38:46.522Z,44.23
2022-11-24T08:41:16.249Z,44.17
2022-11-24T08:43:45.590Z,43.47
2022-11-24T08:46:16.957Z,40.73
2022-11-24T08:48:48.093Z,40.00
2022-11-24T08:51:17.988Z,43.57
2022-11-24T08:53:46.633Z,39.77
2022-11-24T08:56:14.821Z,42.03
2022-11-24T08:58:43.229Z,39.93
2022-11-24T09:01:14.847Z,43.33
2022-11-24T09:03:50.032Z,45.40
2022-11-24T09:06:22.680Z,39.33
2022-11-24T09:08:51.193Z,38.40
2022-11-24T09:11:19.986Z,41.23
2022-11-24T09:13:47.794Z,36.83
2022-11-24T09:16:19.464Z,38.57
2022-11-24T09:18:47.821Z,41.33
2022-11-24T09:21:17.026Z,36.07
2022-11-24T09:23:46.104Z,35.87
2022-11-24T09:26:16.811Z,43.03
2022-11-24T09:28:44.706Z,40.50
2022-11-24T09:31:16.062Z,40.70
2022-11-24T09:33:46.643Z,39.90
2022-11-24T09:36:15.287Z,45.30
2022-11-24T09:38:43.457Z,39.03
2022-11-24T09:41:32.955Z,47.13
2022-11-24T09:44:08.912Z,36.90
2022-11-24T09:46:45.267Z,33.40
2022-11-24T09:49:18.652Z,41.07
2022-11-24T09:51:53.919Z,37.20
2022-11-24T09:54:26.418Z,36.67
2022-11-24T09:56:54.285Z,37.10
2022-11-24T09:59:23.410Z,37.20
2022-11-24T10:01:52.643Z,37.90
2022-11-24T10:04:26.075Z,34.30
2022-11-24T10:07:04.671Z,40.17
2022-11-24T10:09:46.371Z,36.67
2022-11-24T10:12:23.591Z,38.40
2022-11-24T10:15:06.458Z,40.43
2022-11-24T10:17:50.574Z,38.30
2022-11-24T10:20:29.235Z,36.93
2022-11-24T10:23:15.443Z,34.00
2022-11-24T10:25:49.633Z,33.53
2022-11-24T10:28:17.581Z,33.27
2022-11-24T10:30:45.795Z,35.47
2022-11-24T10:33:23.203Z,36.63
2022-11-24T10:35:57.728Z,35.03
2022-11-24T10:38:32.974Z,39.13
2022-11-24T10:41:06.498Z,42.17
2022-11-24T10:43:34.298Z,40.77
2022-11-24T10:46:12.193Z,36.87
2022-11-24T10:48:44.423Z,40.73
2022-11-24T10:51:37.503Z,35.40
2022-11-24T10:54:13.464Z,42.27
2022-11-24T10:56:41.699Z,41.50
2022-11-24T10:59:30.149Z,39.53
2022-11-24T11:01:58.105Z,36.93
2022-11-24T11:04:28.328Z,30.00
2022-11-24T11:07:16.450Z,36.40
2022-11-24T11:09:44.385Z,36.47
2022-11-24T11:15:25.362Z,42.90
2022-11-24T11:17:57.318Z,48.23
2022-11-24T11:20:30.207Z,38.60
2022-11-24T11:23:01.656Z,48.63
2022-11-24T11:25:33.696Z,46.53
2022-11-24T11:28:20.592Z,40.37
2022-11-24T11:31:17.115Z,38.77
2022-11-24T11:34:06.451Z,40.53
2022-11-24T11:36:39.388Z,34.10
2022-11-24T11:39:17.512Z,41.73
2022-11-24T11:41:49.186Z,33.87
2022-11-24T11:44:28.278Z,36.17
2022-11-24T11:46:59.931Z,33.33
2022-11-24T11:49:27.816Z,33.67
2022-11-24T11:52:08.973Z,32.40
2022-11-24T11:54:59.172Z,38.53
2022-11-24T11:57:38.878Z,30.20
2022-11-24T12:00:14.336Z,31.57
2022-11-24T12:03:02.143Z,41.60
2022-11-24T12:05:47.237Z,34.50
2022-11-24T12:08:28.408Z,30.83
2022-11-24T12:11:06.151Z,32.90
2022-11-24T12:13:47.417Z,32.30
2022-11-24T12:16:38.778Z,32.90
2022-11-24T12:19:23.691Z,40.50
2022-11-24T12:22:01.149Z,37.77
2022-11-24T12:24:39.927Z,34.87
2022-11-24T12:27:23.090Z,42.90
2022-11-24T12:30:03.644Z,42.60
2022-11-24T12:32:48.474Z,33.73
2022-11-24T12:35:23.231Z,31.53
2022-11-24T12:38:01.267Z,31.57
2022-11-24T12:40:46.864Z,35.10
2022-11-24T12:43:22.342Z,34.17
2022-11-24T12:46:00.263Z,31.13
2022-11-24T12:48:41.904Z,31.37
2022-11-24T12:51:18.679Z,35.40
2022-11-24T12:53:47.870Z,32.50
2022-11-24T12:56:17.880Z,27.07
2022-11-24T12:58:53.068Z,25.83
2022-11-24T13:01:32.865Z,30.13
2022-11-24T13:04:12.539Z,27.40
2022-11-24T13:06:51.450Z,32.37
2022-11-24T13:09:20.012Z,27.07
2022-11-24T13:11:49.526Z,30.50
2022-11-24T13:14:22.193Z,30.90
2022-11-24T13:17:28.044Z,26.53
2022-11-24T13:19:40.554Z,21.50
2022-11-24T13:22:19.145Z,26.07
2022-11-24T13:24:47.056Z,29.93
2022-11-24T13:27:42.516Z,26.10
2022-11-24T13:30:50.888Z,31.43
2022-11-24T13:33:36.887Z,26.83
2022-11-24T13:36:33.499Z,30.87
2022-11-24T13:39:02.338Z,28.03
2022-11-24T13:42:09.693Z,27.93
2022-11-24T13:44:58.971Z,27.77
2022-11-24T13:47:35.951Z,30.67
2022-11-24T13:50:07.078Z,29.00
2022-11-24T13:52:42.829Z,29.60
2022-11-24T13:55:27.100Z,30.30
2022-11-24T13:57:58.704Z,24.87
2022-11-24T14:00:29.785Z,28.37
2022-11-24T14:03:01.683Z,30.67
2022-11-24T14:05:37.690Z,29.10
2022-11-24T14:08:07.446Z,23.50
2022-11-24T14:10:38.116Z,24.47
2022-11-24T14:13:25.581Z,31.37
2022-11-24T14:16:01.361Z,23.40
2022-11-24T14:18:30.148Z,28.87
2022-11-24T14:21:00.901Z,26.83
2022-11-24T14:23:29.192Z,26.93
2022-11-24T14:25:57.139Z,33.87
2022-11-24T14:28:27.513Z,40.17
2022-11-24T14:31:08.469Z,27.33
2022-11-24T14:33:36.666Z,29.80
2022-11-24T14:36:06.543Z,26.40
2022-11-24T14:38:34.905Z,24.50
2022-11-24T14:41:17.276Z,26.80
2022-11-24T14:43:45.156Z,22.03
2022-11-24T14:46:20.461Z,21.53
2022-11-24T14:48:51.222Z,19.63
2022-11-24T14:51:24.079Z,21.77
2022-11-24T14:53:54.459Z,22.30
2022-11-24T14:56:27.781Z,24.60
2022-11-24T14:58:56.587Z,22.57
2022-11-24T15:01:33.771Z,20.60
2022-11-24T15:07:17.480Z,21.93
2022-11-24T15:09:52.746Z,23.10
2022-11-24T15:12:28.973Z,22.60
2022-11-24T15:14:59.815Z,22.67
2022-11-24T15:17:29.593Z,22.47
2022-11-24T15:20:01.122Z,23.50
2022-11-24T15:22:41.405Z,28.03
2022-11-24T15:25:27.906Z,24.23
2022-11-24T15:27:56.187Z,23.77
2022-11-24T15:30:24.458Z,23.07
2022-11-24T15:32:53.450Z,23.53
2022-11-24T15:35:22.768Z,90.73
2022-11-24T15:37:52.347Z,41.30
2022-11-24T15:40:20.405Z,27.23
2022-11-24T15:42:52.427Z,25.80
2022-11-24T15:45:21.119Z,29.17
2022-11-24T15:47:49.302Z,29.07
2022-11-24T15:50:17.939Z,31.43
2022-11-24T15:52:46.603Z,31.27
2022-11-24T15:55:19.549Z,28.87
2022-11-24T15:57:47.839Z,25.30
2022-11-24T16:00:18.178Z,31.03
2022-11-24T16:02:45.976Z,30.20
2022-11-24T16:05:14.728Z,30.73
2022-11-24T16:07:42.964Z,34.60
2022-11-24T16:10:22.694Z,31.60
2022-11-24T16:12:50.539Z,28.33
2022-11-24T16:15:18.362Z,27.07
2022-11-24T16:17:46.318Z,29.83
2022-11-24T16:20:14.369Z,34.27
2022-11-24T16:22:42.463Z,32.53
2022-11-24T16:25:10.832Z,30.57
2022-11-24T16:27:40.216Z,24.13
2022-11-24T16:30:09.563Z,25.60
2022-11-24T16:32:37.465Z,28.20
2022-11-24T16:35:05.977Z,27.60
2022-11-24T16:37:34.031Z,31.27
2022-11-24T16:40:02.597Z,29.47
2022-11-24T16:42:30.889Z,27.97
2022-11-24T16:45:00.144Z,30.57
2022-11-24T16:47:27.991Z,29.90
2022-11-24T16:49:55.840Z,27.70
2022-11-24T16:52:23.764Z,36.03
2022-11-24T16:54:51.605Z,34.50
2022-11-24T16:57:19.759Z,26.07
2022-11-24T16:59:47.576Z,28.90
2022-11-24T17:02:17.023Z,29.50
2022-11-24T17:04:45.243Z,37.67
2022-11-24T17:07:13.758Z,39.77
2022-11-24T17:09:41.724Z,38.63
2022-11-24T17:12:09.515Z,35.47
2022-11-24T17:14:37.552Z,33.30
2022-11-24T17:17:05.548Z,33.70
2022-11-24T17:19:34.794Z,32.07
2022-11-24T17:22:02.672Z,33.17
2022-11-24T17:24:30.512Z,33.07
2022-11-24T17:26:58.343Z,32.03
2022-11-24T17:29:26.111Z,33.87
2022-11-24T17:31:54.096Z,36.47
2022-11-24T17:34:21.971Z,33.40
2022-11-24T17:36:51.131Z,32.60
2022-11-24T17:39:24.551Z,33.47
2022-11-24T17:41:52.767Z,37.27
2022-11-24T17:44:20.590Z,34.77
2022-11-24T17:46:48.427Z,30.47
2022-11-24T17:49:16.258Z,32.87
2022-11-24T17:51:46.191Z,30.33
2022-11-24T17:57:03.224Z,39.93
2022-11-24T17:59:31.244Z,36.30
2022-11-24T18:01:59.152Z,39.63
2022-11-24T18:04:27.136Z,33.63
2022-11-24T18:06:54.914Z,35.67
2022-11-24T18:09:24.150Z,36.57
2022-11-24T18:11:54.611Z,47.83
2022-11-24T18:14:22.526Z,37.33
2022-11-24T18:16:50.446Z,39.10
2022-11-24T18:19:18.376Z,38.77
2022-11-24T18:21:46.526Z,38.50
2022-11-24T18:24:17.527Z,40.80
2022-11-24T18:26:51.003Z,41.27
2022-11-24T18:29:18.826Z,41.00
2022-11-24T18:31:46.773Z,33.87
2022-11-24T18:34:14.674Z,39.87
2022-11-24T18:36:44.940Z,37.37
2022-11-24T18:39:17.778Z,47.07
2022-11-24T18:41:45.743Z,35.20
2022-11-24T18:44:14.940Z,41.77
2022-11-24T18:46:42.743Z,39.00
2022-11-24T18:49:10.620Z,41.47
2022-11-24T18:51:38.616Z,43.70
2022-11-24T18:54:06.532Z,34.47
2022-11-24T18:56:34.464Z,40.87
2022-11-24T18:59:02.351Z,38.90
2022-11-24T19:01:32.250Z,42.33
2022-11-24T19:04:02.764Z,39.60
2022-11-24T19:06:33.073Z,31.07
2022-11-24T19:09:04.850Z,36.87
2022-11-24T19:11:35.528Z,39.20
2022-11-24T19:14:04.171Z,36.73
2022-11-24T19:16:33.817Z,34.73
2022-11-24T19:19:02.881Z,36.57
2022-11-24T19:21:32.466Z,44.23
2022-11-24T19:24:04.927Z,44.27
2022-11-24T19:26:34.846Z,37.70
2022-11-24T19:29:02.980Z,41.93
2022-11-24T19:31:30.850Z,49.73
2022-11-24T19:34:00.150Z,43.33
2022-11-24T19:36:28.098Z,35.83
2022-11-24T19:38:57.779Z,37.07
2022-11-24T19:41:27.686Z,29.40
2022-11-24T19:43:55.625Z,39.73
2022-11-24T19:46:26.192Z,56.03
2022-11-24T19:48:56.228Z,45.13
2022-11-24T19:51:26.782Z,39.33
2022-11-24T19:53:54.976Z,37.87
2022-11-24T19:56:24.893Z,36.47
2022-11-24T19:58:54.393Z,38.53
2022-11-24T20:01:24.580Z,42.57
2022-11-24T20:03:58.814Z,36.70
2022-11-24T20:06:29.060Z,64.57
2022-11-24T20:08:58.559Z,46.93
2022-11-24T20:11:26.655Z,39.43
2022-11-24T20:13:54.802Z,35.13
2022-11-24T20:16:26.528Z,37.50
2022-11-24T20:18:56.506Z,49.97
2022-11-24T20:21:26.039Z,40.03
2022-11-24T20:23:56.672Z,43.77
2022-11-24T20:26:26.315Z,39.90
2022-11-24T20:28:56.120Z,38.73
2022-11-24T20:31:26.457Z,44.67
2022-11-24T20:33:54.752Z,38.23
2022-11-24T20:36:25.153Z,41.67
2022-11-24T20:38:55.957Z,53.73
2022-11-24T20:41:26.334Z,53.53
2022-11-24T20:43:56.440Z,39.33
2022-11-24T20:46:25.921Z,49.63
2022-11-24T20:48:54.586Z,49.90
2022-11-24T20:51:25.327Z,47.67
2022-11-24T20:53:56.696Z,41.67
2022-11-24T20:56:25.903Z,39.80
2022-11-24T20:58:54.819Z,41.97
2022-11-24T21:01:25.518Z,42.33
2022-11-24T21:03:55.306Z,41.83
2022-11-24T21:06:24.042Z,43.57
2022-11-24T21:08:52.115Z,41.23
2022-11-24T21:11:23.644Z,45.07
2022-11-24T21:13:52.323Z,44.10
2022-11-24T21:16:22.092Z,39.57
2022-11-24T21:18:51.847Z,43.80
2022-11-24T21:21:20.984Z,44.73
2022-11-24T21:23:49.266Z,44.90
2022-11-24T21:26:18.519Z,42.47
2022-11-24T21:28:48.753Z,46.50
2022-11-24T21:31:18.926Z,43.50
2022-11-24T21:33:48.165Z,42.57
2022-11-24T21:36:19.014Z,42.47
2022-11-24T21:38:51.173Z,50.50
2022-11-24T21:41:19.207Z,45.10
2022-11-24T21:43:48.430Z,48.33
2022-11-24T21:46:16.713Z,45.27
2022-11-24T21:48:44.894Z,42.40
2022-11-24T21:51:14.166Z,41.60
2022-11-24T21:53:42.507Z,42.93
2022-11-24T21:56:13.748Z,47.10
2022-11-24T21:58:45.896Z,47.03
2022-11-24T22:01:17.040Z,43.43
2022-11-24T22:03:45.803Z,44.20
2022-11-24T22:06:14.064Z,44.33
2022-11-24T22:08:41.963Z,39.93
2022-11-24T22:11:12.890Z,43.10
2022-11-24T22:13:41.047Z,44.23
2022-11-24T22:16:11.128Z,45.90
2022-11-24T22:18:42.067Z,49.87
2022-11-24T22:21:12.811Z,44.37
2022-11-24T22:23:40.948Z,45.07
2022-11-24T22:26:12.338Z,47.33
2022-11-24T22:28:40.495Z,65.37
2022-11-24T22:31:09.904Z,51.50
2022-11-24T22:33:37.826Z,51.27
2022-11-24T22:36:08.094Z,51.77
2022-11-24T22:38:36.953Z,50.30
2022-11-24T22:41:06.682Z,54.07
2022-11-24T22:43:36.277Z,52.13
2022-11-24T22:46:05.278Z,51.10
2022-11-24T22:48:33.802Z,42.40
2022-11-24T22:51:03.368Z,43.93
2022-11-24T22:53:33.080Z,38.00
2022-11-24T22:56:04.071Z,46.20
2022-11-24T22:58:32.949Z,45.57
2022-11-24T23:01:06.137Z,49.37
2022-11-24T23:03:34.755Z,47.47
2022-11-24T23:06:03.356Z,43.50
2022-11-24T23:08:34.214Z,45.77
2022-11-24T23:11:02.756Z,42.37
2022-11-24T23:13:30.758Z,44.13
2022-11-24T23:16:03.117Z,41.57
2022-11-24T23:18:31.309Z,45.73
2022-11-24T23:21:05.658Z,45.60
2022-11-24T23:23:35.505Z,44.40
2022-11-24T23:26:04.959Z,45.40
2022-11-24T23:28:32.912Z,47.70
2022-11-24T23:31:02.816Z,50.83
2022-11-24T23:33:31.550Z,53.60
2022-11-24T23:36:02.289Z,57.93
2022-11-24T23:38:32.729Z,51.83
2022-11-24T23:41:04.509Z,52.27
2022-11-24T23:43:32.726Z,50.67
2022-11-24T23:46:04.355Z,44.37
2022-11-24T23:48:32.450Z,50.83
2022-11-24T23:51:04.947Z,51.40
2022-11-24T23:53:33.502Z,43.83
2022-11-24T23:56:03.411Z,52.60
2022-11-24T23:58:31.809Z,53.40
